Observations for PARMA, Italy (LIMP)

LIMP 201950Z 23003KT 5000 BR NSC 04/02 Q1026
LIMP 201850Z 11001KT 7000 NSC 06/04 Q1025   
LIMP 201750Z 08003KT CAVOK 08/05 Q1025  
LIMP 201650Z 09004KT CAVOK 11/04 Q1024  
LIMP 201550Z 06004KT CAVOK 12/05 Q1024  
LIMP 201450Z VRB02KT CAVOK 12/05 Q1014  
LIMP 201350Z VRB02KT 7000 NSC 11/04 Q1025   
LIMP 201250Z VRB02KT 6000 NSC 11/05 Q1025   
LIMP 201150Z 02003KT 5000 BR NSC 08/05 Q1026
LIMP 201050Z 36003KT 310V050 5000 BR NSC 07/04 Q1026
LIMP 200950Z 31003KT 3500 BR NSC 05/03 Q1026
LIMP 200911Z VRB02KT 3000 BR NSC 03/03 Q1026
LIMP 200850Z 01003KT 0600 R20/0450 FG NSC 02/02 Q1026   
LIMP 200750Z 04005KT 0200 R20/0200 FG OVC001 01/01 Q1025
LIMP 200650Z 05002KT 2000 BR NSC 00/00 Q1025
LIMP 200600Z 00000KT 2000 BR OVC020 01/00 Q1024
LIMP 191950Z 23008KT CAVOK 09/02 Q1022